Monday, January 21, 2019, 5:12 PM EST
Back to Local

KACK, Nantucket Memorial Airport

Location: Nantucket, MA, United States Lat: 41.25
Local Time: 5:12 PM EST (22:12 GMT) Lon: -70.067
Time Zone: US/Eastern Elev: 49 ft

Show me the last for .
Show Decoded

2019-01-21 16:53 METAR KACK 212153Z 31018G29KT 4SM -SN BKN026 OVC035 M14/M19 A2986 RMK AO2 PK WND
                 32029/2151 SLP111 P0000 T11391189 $ =
2019-01-21 16:27 METAR KACK 212127Z 31017G26KT 2SM -SN BKN022 BKN027 OVC035 M14/M18 A2985 RMK AO2
                 PK WND 30026/2121 P0000 T11391183 $ =
2019-01-21 16:18 METAR KACK 212118Z 30019G26KT 3SM -SN BKN025 OVC035 M14/M18 A2984 RMK AO2 PK WND
                 31026/2115 P0000 T11391183 $ =
2019-01-21 15:53 METAR KACK 212053Z 28013G24KT 1 3/4SM -SN BKN021 OVC028 M14/M17 A2983 RMK AO2
                 SLP100 P0000 60000 T11391172 53014 $ =
2019-01-21 15:38 METAR KACK 212038Z 30017G24KT 3SM -SN BKN023 OVC032 M13/M18 A2982 RMK AO2 P0000
                 T11331178 =
2019-01-21 15:31 METAR KACK 212031Z 28016G24KT 2 1/2SM -SN SCT020 BKN027 OVC032 M13/M18 A2981 RMK
                 AO2 P0000 T11331178 =
2019-01-21 15:12 METAR KACK 212012Z 29020G25KT 3SM -SN FEW020 OVC030 M13/M18 A2980 RMK AO2 P0000
                 T11331178 =
2019-01-21 14:53 METAR KACK 211953Z 28018G22KT 3SM -SN SCT020 BKN027 OVC032 M13/M18 A2980 RMK AO2
                 SNE30B39 SLP090 P0000 T11281183 =
2019-01-21 14:30 METAR KACK 211930Z 28014G22KT 6SM HZ SCT020 OVC030 M13/M18 A2979 RMK AO2 SNE30
                 P0000 T11331183 =
2019-01-21 13:53 METAR KACK 211853Z 30016KT 3SM -SN BKN019 BKN024 OVC031 M13/M18 A2978 RMK AO2
                 SLP085 P0000 T11331183 =
2019-01-21 12:53 METAR KACK 211753Z 29017G22KT 3SM -SN BKN022 OVC033 M13/M17 A2978 RMK AO2
                 SNB1658 SLP084 P0000 60000 T11281172 11122 21139 58001 =
2019-01-21 11:53 METAR KACK 211653Z 29017G22KT 6SM HZ BKN022 OVC030 M13/M18 A2978 RMK AO2
                 SNB35E46 SLP084 P0000 T11331183 =
2019-01-21 11:25 METAR KACK 211625Z 30018G25KT 6SM HZ BKN028 OVC033 M13/M19 A2979 RMK AO2
                 T11331189 =
2019-01-21 10:53 METAR KACK 211553Z 29014KT 6SM HZ FEW023 OVC031 M13/M18 A2979 RMK AO2 SNE1459
                 SLP089 P0000 T11331183 =
2019-01-21 09:53 METAR KACK 211453Z 27017G23KT 4SM -SN OVC026 M13/M18 A2978 RMK AO2 SNB15 SLP084
                 P0000 60000 T11281178 51033 =
2019-01-21 08:53 METAR KACK 211353Z 28018G23KT 7SM OVC023 M13/M17 A2976 RMK AO2
                 SNE1257B13E23B42E51 SLP078 P0000 T11331172 =
2019-01-21 07:53 METAR KACK 211253Z 28014KT 5SM -SN OVC023 M13/M17 A2972 RMK AO2 SNE1158B15
                 SLP065 P0000 T11331172 =
2019-01-21 06:53 METAR KACK 211153Z 28014KT 8SM -SN OVC023 M13/M17 A2968 RMK AO2 SNB29 SLP052
                 P0000 60000 70150 T11331172 11083 21133 52032 =
2019-01-21 05:53 METAR KACK 211053Z AUTO 28016G24KT 10SM OVC022 M13/M17 A2966 RMK AO2 SLP043
                 T11281167 =
2019-01-21 04:53 METAR KACK 210953Z 29016G24KT 10SM OVC021 M12/M17 A2962 RMK AO2 PK WND
                 28028/0939 SLP030 T11221167 =
2019-01-21 03:53 METAR KACK 210853Z 30018G26KT 10SM BKN022 M11/M16 A2959 RMK AO2 PK WND
                 30029/0814 SLP020 T11111161 51033 =
2019-01-21 02:53 METAR KACK 210753Z 29018G28KT 10SM OVC021 M11/M16 A2958 RMK AO2 PK WND
                 28028/0700 SLP015 T11111156 =
2019-01-21 01:53 METAR KACK 210653Z 30019G29KT 10SM OVC020 M10/M14 A2955 RMK AO2 PK WND
                 30029/0649 PRESRR SLP006 T11001144 =
2019-01-21 01:18 METAR KACK 210618Z 30021G28KT 10SM BKN020 M09/M13 A2951 RMK AO2 PK WND
                 31028/0616 T10891133 =
2019-01-21 00:53 METAR KACK 210553Z 31017G25KT 10SM SCT021 M08/M14 A2949 RMK AO2 PK WND
                 31031/0507 SLP987 60000 I6003 T10831144 11017 21083 51034 =
2019-01-20 23:53 METAR KACK 210453Z 31016G26KT 10SM OVC021 M06/M09 A2948 RMK AO2 PK WND
                 31027/0422 SLP982 T10611094 401111061 =
2019-01-20 22:53 METAR KACK 210353Z 30017G24KT 10SM BKN022 OVC029 M04/M08 A2943 RMK AO2 PK WND
                 31027/0259 SLP966 T10391078 =
2019-01-20 21:53 METAR KACK 210253Z 30016G24KT 10SM OVC018 M03/M06 A2939 RMK AO2 PK WND
                 31027/0158 SLP954 60000 I3003 T10281061 53022 =
2019-01-20 21:04 METAR KACK 210204Z 31018G27KT 10SM OVC015 M02/M04 A2937 RMK AO2 PK WND
                 31027/0158 T10221044 =
2019-01-20 20:53 METAR KACK 210153Z 31017G22KT 10SM OVC013 M02/M04 A2936 RMK AO2 PK WND
                 32026/0127 FZRAE12 SLP941 P0000 I1001 T10221044 =
2019-01-20 20:18 METAR KACK 210118Z 31014G21KT 6SM BR OVC006 M02/M03 A2934 RMK AO2 FZRAE12 CIG
                 004V010 P0000 I1001 T10221033 =
2019-01-20 20:03 METAR KACK 210103Z 31016G25KT 4SM -FZRA BR OVC005 M02/M03 A2934 RMK AO2 CIG
                 004V009 P0000 I1000 T10221028 =
2019-01-20 19:53 METAR KACK 210053Z 33019G24KT 2 1/2SM -FZRA BR OVC005 M02/M03 A2933 RMK AO2 PK
                 WND 33031/0030 UPB15E23FZRAB38SNB2356E15 SLP932 P0000 I1002 T10171028 =
2019-01-20 19:51 METAR KACK 210051Z 32016G24KT 2 1/2SM -FZRA BR OVC005 M02/M03 A2933 RMK AO2 PK
                 WND 33031/0030 UPB15E23FZRAB38SNB2356E15 P0000 I1002 =
2019-01-20 19:44 METAR KACK 210044Z 32016G26KT 3SM -FZRA BR OVC005 M02/M02 A2932 RMK AO2 PK WND
                 33031/0030 UPB15E23FZRAB38SNB2356E15 PRESRR P0000 I1001 T10171022 =
2019-01-20 19:21 METAR KACK 210021Z 33021G28KT 3SM UP BR OVC004 M02/M02 A2929 RMK AO2 PK WND
                 34030/2356 UPB15SNB2356E15 P0000 T10171022 =
2019-01-20 19:14 METAR KACK 210014Z 34018G25KT 2 1/2SM -SN BR OVC004 M02/M02 A2929 RMK AO2 PK WND
                 34030/2356 SNB2356 PRESRR P0000 T10171022 =
2019-01-20 19:02 METAR KACK 210002Z 34020G30KT 1 3/4SM -SN BR OVC003 M02/M03 A2927 RMK AO2 PK WND
                 34030/2356 SNB2356 P0000 T10221028 =
2019-01-20 18:53 METAR KACK 202353Z 33019G30KT 3SM BR OVC003 M02/M03 A2927 RMK AO2 PK WND
                 35031/2319 WSHFT 2240 UPB2256E2257RAB2257E51 SLP911 P0000 60049 I1003 I6003
                 T10221028 10100 21022 53037 =
2019-01-20 18:33 METAR KACK 202333Z 34020G30KT 3SM RA BR VV002 M02/M03 A2925 RMK AO2 PK WND
                 35031/2319 WSHFT 2240 UPB2256E2257RAB2257 P0000 I1002 T10221028 =
2019-01-20 18:17 METAR KACK 202317Z 34021G27KT 2 1/2SM RA BR VV002 M01/M02 A2924 RMK AO2 PK WND
                 33031/2306 WSHFT 2240 UPB2256E2257RAB2257 P0000 I1001 T10111017 =
2019-01-20 18:09 METAR KACK 202309Z 34025G31KT 3SM RA BR VV002 M01/M01 A2924 RMK AO2 PK WND
                 33031/2306 WSHFT 2240 UPB2256E2257RAB2257 P0000 I1000 T10111011 =
2019-01-20 18:00 METAR KACK 202300Z 34023G29KT 2 1/2SM RA BR VV002 M01/M01 A2924 RMK AO2 PK WND
                 33029/2259 WSHFT 2240 UPB2256E2257RAB2257 PRESRR P0000 T10061006 =
2019-01-20 17:53 METAR KACK 202253Z 34024G27KT 1/2SM R24/3500VP6000FT FG VV002 00/00 A2923 RMK
                 AO2 PK WND 33027/2253 WSHFT 2236 RAE05 PRESRR SLP900 P0000 T00000000 =
2019-01-20 17:45 METAR KACK 202245Z 34019G26KT 1/2SM R24/1800VP6000FT FG VV002 06/06 A2921 RMK
                 AO2 PK WND 31026/2243 WSHFT 2231 RAE05 PRESRR P0000 T00560056 =
2019-01-20 17:31 METAR KACK 202231Z 23012KT 1/2SM R24/1800V2000FT FG VV002 07/07 A2919 RMK AO2
                 RAE05 P0000 T00720072 =

Support USWX by starting your Amazon purchase here.